Federal Barents — V7FY7 — position and weather

sailwx.info

Track history (hours):
 
Tides and Currents Weather Stations Pressure Air Temp Water Temp Dewpoint Dewpoint Depression Visibility Wind Speed Wind Dir Waves Ship Positions

Federal Barents

Last reported at 2017-Dec-17 00:30 UTC. Time now 2017-Dec-17 00:42 UTC.
Position N 45°28' E 012°14'.

Length 200 m; draft 8.2 m.

Type: Cargo ship. MMSI: 538006419.

Date/timePositionNaut miles runAvg speedWind from/ knotsBaromVisibWave heightAir tempDewpointWater temp
2017-Dec-17 00:30N 45°28' E 012°14'0 0.0
2017-Dec-17 00:00N 45°28' E 012°14'0 0.0
2017-Dec-16 23:30N 45°28' E 012°14'0 0.0
2017-Dec-16 23:00N 45°28' E 012°14'0 0.0
2017-Dec-16 22:30N 45°28' E 012°14'0 0.0
2017-Dec-16 21:57N 45°28' E 012°14'0 0.0
2017-Dec-16 21:30N 45°28' E 012°14'0 0.0
2017-Dec-16 21:00N 45°28' E 012°14'0 0.0
2017-Dec-16 20:30N 45°28' E 012°14'0 0.0
2017-Dec-16 19:51N 45°28' E 012°14'0 0.0
2017-Dec-16 19:27N 45°28' E 012°14'0 0.0
2017-Dec-16 19:00N 45°28' E 012°14'0 0.0
2017-Dec-16 18:30N 45°28' E 012°14'0 0.0
2017-Dec-16 18:00N 45°28' E 012°14'0 0.0
2017-Dec-16 17:30N 45°28' E 012°14'0 0.0
2017-Dec-16 16:48N 45°28' E 012°14'0 0.0
2017-Dec-16 16:24N 45°28' E 012°14'0 0.0
2017-Dec-16 16:00N 45°28' E 012°14'0 0.0
2017-Dec-16 15:27N 45°28' E 012°14'0 0.0
2017-Dec-16 15:00N 45°28' E 012°14'0 0.0
2017-Dec-16 14:30N 45°28' E 012°14'0 0.0
2017-Dec-16 14:00N 45°28' E 012°14'0 0.0
2017-Dec-16 12:39N 45°28' E 012°14'0 0.0
2017-Dec-16 12:30N 45°28' E 012°14'0 0.0
2017-Dec-16 12:00N 45°28' E 012°14'0 0.0
2017-Dec-16 11:30N 45°28' E 012°14'0 0.0
2017-Dec-16 10:57N 45°28' E 012°14'0 0.0
2017-Dec-16 10:30N 45°28' E 012°14'0 0.0
2017-Dec-16 10:00N 45°28' E 012°14'0 0.0
2017-Dec-16 09:30N 45°28' E 012°14'0 0.0
2017-Dec-16 09:00N 45°28' E 012°14'0 0.0
2017-Dec-16 08:30N 45°28' E 012°14'0 0.0
2017-Dec-16 07:57N 45°28' E 012°14'0 0.0
2017-Dec-16 07:30N 45°28' E 012°14'0 0.0
2017-Dec-16 07:00N 45°28' E 012°14'0 0.0
2017-Dec-16 06:30N 45°28' E 012°14'0 0.0
2017-Dec-16 06:00N 45°28' E 012°14'0 0.0
2017-Dec-16 05:30N 45°28' E 012°14'0 0.0
2017-Dec-16 05:00N 45°28' E 012°14'0 0.0
2017-Dec-16 04:30N 45°28' E 012°14'0 0.0
2017-Dec-16 04:00N 45°28' E 012°14'0 0.0
2017-Dec-16 03:30N 45°28' E 012°14'0 0.0
2017-Dec-16 02:57N 45°28' E 012°14'0 0.0
2017-Dec-16 02:27N 45°28' E 012°14'0 0.0
2017-Dec-16 01:57N 45°28' E 012°14'0 0.0
2017-Dec-16 01:30N 45°28' E 012°14'0 0.0
2017-Dec-16 00:54N 45°28' E 012°14'0 0.0
2017-Dec-16 00:21N 45°28' E 012°14'0 0.0
2017-Dec-16 00:00N 45°28' E 012°14'0 0.0
2017-Dec-15 23:27N 45°28' E 012°14'0 0.0
2017-Dec-15 22:57N 45°28' E 012°14'0 0.0
2017-Dec-15 22:27N 45°28' E 012°14'0 0.0
2017-Dec-15 21:51N 45°28' E 012°14'0 0.0
2017-Dec-15 20:36N 45°28' E 012°14'0 0.0
2017-Dec-15 20:30N 45°28' E 012°14'0 0.0
2017-Dec-15 19:36N 45°28' E 012°14'0 0.0
2017-Dec-15 19:18N 45°28' E 012°14'0 0.0
2017-Dec-15 18:36N 45°28' E 012°14'0 0.0
2017-Dec-15 18:30N 45°28' E 012°14'0 0.0
2017-Dec-15 17:54N 45°28' E 012°14'0 0.0
2017-Dec-15 17:27N 45°28' E 012°14'0 0.0
2017-Dec-15 16:54N 45°28' E 012°14'0 0.0
2017-Dec-15 16:30N 45°28' E 012°14'0 0.0
2017-Dec-15 16:00N 45°28' E 012°14'0 0.0
2017-Dec-15 15:30N 45°28' E 012°14'0 0.0
2017-Dec-15 15:00N 45°28' E 012°14'0 0.0
2017-Dec-15 14:30N 45°28' E 012°14'1 1.2
2017-Dec-15 14:00N 45°27' E 012°14'2 3.6
2017-Dec-15 13:31N 45°26' E 012°16'4 7.1
2017-Dec-15 13:00N 45°22' E 012°15'4 7.6
2017-Dec-15 12:30N 45°20' E 012°20'3 6.9
2017-Dec-15 12:00N 45°19' E 012°25'2 3.3
2017-Dec-15 11:31N 45°20' E 012°26'2 3.8
2017-Dec-15 11:00N 45°22' E 012°28'0 0.2
2017-Dec-15 10:28N 45°22' E 012°28'0 0.0
2017-Dec-15 09:58N 45°22' E 012°28'0 0.0
2017-Dec-15 09:28N 45°22' E 012°28'0 0.0
2017-Dec-15 08:58N 45°22' E 012°28'0 0.0
2017-Dec-15 08:28N 45°22' E 012°28'0 0.0
2017-Dec-15 07:58N 45°22' E 012°28'0 0.0
2017-Dec-15 07:28N 45°22' E 012°28'0 0.0
2017-Dec-15 06:58N 45°22' E 012°28'0 0.0
2017-Dec-15 06:28N 45°22' E 012°28'0 0.0
2017-Dec-15 05:58N 45°22' E 012°28'0 0.0
2017-Dec-15 05:25N 45°22' E 012°28'0 0.0
2017-Dec-15 04:58N 45°22' E 012°28'0 0.0
2017-Dec-15 04:28N 45°22' E 012°28'0 0.0
2017-Dec-15 03:58N 45°22' E 012°28'0 0.0
2017-Dec-15 02:25N 45°22' E 012°28'0 0.0
2017-Dec-15 00:58N 45°22' E 012°28'0 0.0
2017-Dec-15 00:28N 45°22' E 012°28'0 0.0
2017-Dec-14 18:28N 45°22' E 012°28'0 0.0
2017-Dec-14 17:58N 45°22' E 012°28'0 0.0
2017-Dec-14 17:28N 45°22' E 012°28'0 0.0
2017-Dec-14 16:58N 45°22' E 012°28'0 0.0
2017-Dec-14 16:28N 45°22' E 012°28'0 0.0
2017-Dec-14 15:58N 45°22' E 012°28'0 0.0
2017-Dec-14 14:58N 45°22' E 012°28'0 0.0
2017-Dec-14 14:28N 45°22' E 012°28'0 0.2
2017-Dec-14 13:58N 45°22' E 012°28'0 0.0
2017-Dec-14 13:28N 45°22' E 012°28'0 0.0
2017-Dec-14 12:58N 45°22' E 012°28'0 0.0
2017-Dec-14 12:28N 45°22' E 012°28'0 0.0
2017-Dec-14 11:55N 45°22' E 012°28'0 0.0
2017-Dec-14 11:28N 45°22' E 012°28'0 0.0
2017-Dec-14 10:58N 45°22' E 012°28'0 0.1
2017-Dec-14 10:28N 45°22' E 012°28'0 0.1
2017-Dec-14 09:58N 45°22' E 012°28'0 0.0
2017-Dec-14 09:28N 45°22' E 012°28'0 0.0
2017-Dec-14 08:58N 45°22' E 012°28'0 0.0
2017-Dec-14 08:28N 45°22' E 012°28'0 0.0
2017-Dec-14 07:58N 45°22' E 012°28'0 0.0
2017-Dec-14 07:28N 45°22' E 012°28'0 0.0
2017-Dec-14 06:58N 45°22' E 012°28'0 0.0
2017-Dec-14 06:25N 45°22' E 012°28'0 0.0
2017-Dec-14 05:58N 45°22' E 012°28'0 0.0
2017-Dec-14 05:28N 45°22' E 012°28'0 0.0
2017-Dec-14 04:58N 45°22' E 012°28'0 0.0
2017-Dec-14 04:28N 45°22' E 012°28'0 0.0
2017-Dec-14 03:58N 45°22' E 012°28'0 0.0
2017-Dec-14 03:28N 45°22' E 012°28'0 0.0
2017-Dec-14 02:58N 45°22' E 012°28'0 0.1
2017-Dec-14 02:28N 45°22' E 012°28'0 0.1
2017-Dec-14 01:58N 45°22' E 012°28'0 0.0
2017-Dec-14 01:28N 45°22' E 012°28'0 0.2
2017-Dec-14 00:58N 45°22' E 012°28'0 0.0
2017-Dec-14 00:25N 45°22' E 012°28'0 0.0
2017-Dec-13 23:58N 45°22' E 012°28'0 0.1
2017-Dec-13 23:28N 45°22' E 012°28'0 0.1
2017-Dec-13 22:58N 45°22' E 012°28'0 0.1
2017-Dec-13 22:28N 45°22' E 012°28'0 0.0
2017-Dec-13 21:58N 45°22' E 012°28'0 0.0
2017-Dec-13 21:28N 45°22' E 012°28'0 0.0
2017-Dec-13 20:58N 45°22' E 012°28'0 0.0
2017-Dec-13 20:28N 45°22' E 012°28'0 0.0
2017-Dec-13 19:58N 45°22' E 012°28'0 0.0
2017-Dec-13 19:28N 45°22' E 012°28'0 0.0
2017-Dec-13 18:55N 45°22' E 012°28'0 0.0
2017-Dec-13 18:28N 45°22' E 012°28'0 0.0
2017-Dec-13 17:58N 45°22' E 012°28'0 0.0
2017-Dec-13 17:25N 45°22' E 012°28'0 0.0
2017-Dec-13 16:58N 45°22' E 012°28'0 0.0
2017-Dec-13 16:28N 45°22' E 012°28'0 0.0
2017-Dec-13 15:58N 45°22' E 012°28'0 0.0
2017-Dec-13 15:28N 45°22' E 012°28'0 0.0
2017-Dec-13 14:58N 45°22' E 012°28'0 0.0
2017-Dec-13 14:28N 45°22' E 012°28'0 0.0
2017-Dec-13 13:55N 45°22' E 012°28'0 0.0
2017-Dec-13 13:28N 45°22' E 012°28'0 0.0
2017-Dec-13 12:58N 45°22' E 012°28'0 0.1
2017-Dec-13 12:28N 45°22' E 012°28'0 0.1
2017-Dec-13 11:58N 45°22' E 012°28'0 0.1
2017-Dec-13 11:28N 45°22' E 012°28'0 0.0
2017-Dec-13 10:58N 45°22' E 012°28'0 0.0
2017-Dec-13 10:28N 45°22' E 012°28'0 0.0
2017-Dec-13 09:58N 45°22' E 012°28'0 0.1
2017-Dec-13 09:28N 45°22' E 012°28'0 0.0
2017-Dec-13 08:58N 45°22' E 012°28'0 0.0
2017-Dec-13 08:25N 45°22' E 012°28'0 0.0
2017-Dec-13 07:58N 45°22' E 012°28'0 0.0
2017-Dec-13 07:28N 45°22' E 012°28'0 0.0
2017-Dec-13 06:58N 45°22' E 012°28'0 0.0
2017-Dec-13 06:25N 45°22' E 012°28'0 0.0
2017-Dec-13 05:58N 45°22' E 012°28'0 0.0
2017-Dec-13 05:28N 45°22' E 012°28'0 0.0
2017-Dec-13 04:58N 45°22' E 012°28'0 0.0
2017-Dec-13 04:28N 45°22' E 012°28'0 0.0
2017-Dec-13 03:58N 45°22' E 012°28'0 0.1
2017-Dec-13 03:28N 45°22' E 012°28'0 0.0
2017-Dec-13 02:58N 45°22' E 012°28'0 0.0
2017-Dec-13 02:28N 45°22' E 012°28'0 0.0
2017-Dec-13 01:58N 45°22' E 012°28'0 0.0
2017-Dec-13 01:28N 45°22' E 012°28'0 0.0
2017-Dec-13 00:58N 45°22' E 012°28'0 0.0
2017-Dec-13 00:28N 45°22' E 012°28'0 0.0
2017-Dec-12 23:58N 45°22' E 012°28'0 0.1
2017-Dec-12 23:28N 45°22' E 012°28'0 0.0
2017-Dec-12 22:58N 45°22' E 012°28'0 0.0
2017-Dec-12 22:28N 45°22' E 012°28'0 0.1
2017-Dec-12 21:58N 45°22' E 012°28'0 0.1
2017-Dec-12 21:28N 45°22' E 012°28'0 0.0
2017-Dec-12 20:58N 45°22' E 012°28'0 0.0
2017-Dec-12 20:28N 45°22' E 012°28'0 0.0
2017-Dec-12 19:58N 45°22' E 012°28'0 0.0
2017-Dec-12 19:28N 45°22' E 012°28'0 0.0
2017-Dec-12 18:58N 45°22' E 012°28'0 0.0
2017-Dec-12 18:28N 45°22' E 012°28'0 0.0
2017-Dec-12 17:58N 45°22' E 012°28'0 0.0
2017-Dec-12 17:28N 45°22' E 012°28'0 0.0
2017-Dec-12 16:58N 45°22' E 012°28'0 0.0
2017-Dec-12 16:28N 45°22' E 012°28'0 0.0
2017-Dec-12 15:58N 45°22' E 012°28'0 0.1
2017-Dec-12 15:28N 45°22' E 012°28'0 0.0
2017-Dec-12 14:58N 45°22' E 012°28'0 0.0
2017-Dec-12 14:28N 45°22' E 012°28'0 0.0
2017-Dec-12 13:58N 45°22' E 012°28'0 0.0
2017-Dec-12 13:28N 45°22' E 012°28'0 0.0
2017-Dec-12 12:58N 45°22' E 012°28'0 0.0
2017-Dec-12 12:28N 45°22' E 012°28'0 0.0
2017-Dec-12 11:58N 45°22' E 012°28'0 0.1
2017-Dec-12 11:28N 45°22' E 012°28'0 0.0
2017-Dec-12 10:58N 45°22' E 012°28'0 0.0
2017-Dec-12 10:28N 45°22' E 012°28'0 0.0
2017-Dec-12 09:58N 45°22' E 012°28'0 0.2
2017-Dec-12 09:28N 45°22' E 012°28'0 0.2
2017-Dec-12 08:58N 45°22' E 012°28'0 0.0
2017-Dec-12 08:28N 45°22' E 012°28'0 0.1
2017-Dec-12 07:58N 45°22' E 012°28'0 0.0
2017-Dec-12 07:28N 45°22' E 012°28'0 0.0
2017-Dec-12 06:58N 45°22' E 012°28'0 0.1
2017-Dec-12 06:28N 45°22' E 012°28'0 0.0
2017-Dec-12 05:58N 45°22' E 012°28'0 0.0
2017-Dec-12 05:25N 45°22' E 012°28'0 0.0
2017-Dec-12 04:58N 45°22' E 012°28'0 0.0
2017-Dec-12 04:28N 45°22' E 012°28'0 0.0
2017-Dec-12 03:58N 45°22' E 012°28'0 0.0
2017-Dec-12 03:28N 45°22' E 012°28'0 0.1
2017-Dec-12 02:58N 45°22' E 012°28'0 0.0
2017-Dec-12 02:28N 45°22' E 012°28'0 0.1
2017-Dec-12 01:58N 45°22' E 012°28'0 0.1
2017-Dec-12 01:28N 45°22' E 012°28'0 0.0
2017-Dec-12 00:58N 45°22' E 012°28'0 0.1
2017-Dec-12 00:28N 45°22' E 012°28'0 0.1
2017-Dec-11 23:58N 45°22' E 012°28'0 0.1
2017-Dec-11 23:28N 45°22' E 012°28'0 0.0
2017-Dec-11 22:58N 45°22' E 012°28'0 0.0
2017-Dec-11 22:28N 45°22' E 012°28'0 0.0
2017-Dec-11 21:58N 45°22' E 012°28'0 0.0
2017-Dec-11 21:28N 45°22' E 012°28'0 0.0
2017-Dec-11 20:58N 45°22' E 012°28'0 0.0
2017-Dec-11 20:28N 45°22' E 012°28'0 0.0
2017-Dec-11 19:58N 45°22' E 012°28'0 0.0
2017-Dec-11 19:28N 45°22' E 012°28'0 0.0
2017-Dec-11 18:58N 45°22' E 012°28'0 0.0
2017-Dec-11 18:28N 45°22' E 012°28'0 0.0
2017-Dec-11 17:58N 45°22' E 012°28'0 0.0
2017-Dec-11 17:28N 45°22' E 012°28'0 0.0
2017-Dec-11 16:58N 45°22' E 012°28'0 0.0
2017-Dec-11 16:28N 45°22' E 012°28'0 0.0
2017-Dec-11 15:58N 45°22' E 012°28'0 0.0
2017-Dec-11 15:28N 45°22' E 012°28'0 0.0
2017-Dec-11 14:58N 45°22' E 012°28'0 0.0
2017-Dec-11 14:28N 45°22' E 012°28'0 0.1
2017-Dec-11 13:58N 45°22' E 012°28'0 0.0
2017-Dec-11 13:28N 45°22' E 012°28'0 0.0
2017-Dec-11 12:58N 45°22' E 012°28'0 0.0
2017-Dec-11 12:28N 45°22' E 012°28'0 0.0
2017-Dec-11 11:58N 45°22' E 012°28'0 0.0
2017-Dec-11 11:28N 45°22' E 012°28'0 0.2
2017-Dec-11 11:00N 45°22' E 012°28'2 4.0
2017-Dec-11 10:30N 45°20' E 012°26'3 5.2
2017-Dec-11 10:00N 45°18' E 012°28'3 5.2
2017-Dec-11 09:30N 45°17' E 012°32'3 5.5
2017-Dec-11 09:00N 45°15' E 012°35'3 5.5
2017-Dec-11 08:30N 45°14' E 012°38'3 5.5
2017-Dec-11 08:00N 45°12' E 012°41'3 5.7
2017-Dec-11 07:30N 45°10' E 012°45'4 7.6
2017-Dec-11 07:00N 45°08' E 012°48'4 7.4
2017-Dec-11 06:30N 45°04' E 012°50'4 7.5
2017-Dec-11 06:00N 45°01' E 012°53'4 7.8
2017-Dec-11 05:30N 44°57' E 012°55'4 8.7
2017-Dec-11 05:00N 44°53' E 012°57'4 8.7
2017-Dec-11 04:30N 44°49' E 012°59'4 8.9
2017-Dec-11 04:00N 44°45' E 013°02'4 8.8
2017-Dec-11 03:30N 44°41' E 013°04'4 8.8
2017-Dec-11 03:00N 44°37' E 013°06'4 8.8
2017-Dec-11 02:30N 44°33' E 013°08'4 8.8
2017-Dec-11 01:59N 44°28' E 013°10'4 8.8
2017-Dec-11 01:30N 44°24' E 013°11'5 9.1
2017-Dec-11 01:00N 44°20' E 013°13'4 8.8
2017-Dec-11 00:30N 44°16' E 013°17'5 9.0
2017-Dec-11 00:00N 44°14' E 013°22'6 8.9
2017-Dec-10 23:20N 44°10' E 013°29'  
2017-Dec-08 13:46N 36°26' E 014°43'413.9
2017-Dec-08 13:30N 36°27' E 014°38'714.1
2017-Dec-08 13:00N 36°29' E 014°30'714.1
2017-Dec-08 12:30N 36°31' E 014°22'713.1
2017-Dec-08 12:00N 36°33' E 014°14'612.6
2017-Dec-08 11:30N 36°35' E 014°07'812.5
2017-Dec-08 10:49N 36°37' E 013°56'412.5
2017-Dec-08 10:28N 36°38' E 013°51'1812.5
2017-Dec-08 09:03N 36°43' E 013°30'112.6
2017-Dec-08 08:57N 36°43' E 013°28'  
Track history (hours):
 
Tides and Currents Weather Stations Pressure Air Temp Water Temp Dewpoint Dewpoint Depression Visibility Wind Speed Wind Dir Waves Ship Positions

Federal Barents

Last reported at 2017-Dec-17 00:30 UTC. Time now 2017-Dec-17 00:42 UTC.
Position N 45°28' E 012°14'.

Length 200 m; draft 8.2 m.

Type: Cargo ship. MMSI: 538006419.

Date/timePositionNaut miles runAvg speedWind from/ knotsBaromVisibWave heightAir tempDewpointWater temp
2017-Dec-17 00:30N 45°28' E 012°14'0 0.0
2017-Dec-17 00:00N 45°28' E 012°14'0 0.0
2017-Dec-16 23:30N 45°28' E 012°14'0 0.0
2017-Dec-16 23:00N 45°28' E 012°14'0 0.0
2017-Dec-16 22:30N 45°28' E 012°14'0 0.0
2017-Dec-16 21:57N 45°28' E 012°14'0 0.0
2017-Dec-16 21:30N 45°28' E 012°14'0 0.0
2017-Dec-16 21:00N 45°28' E 012°14'0 0.0
2017-Dec-16 20:30N 45°28' E 012°14'0 0.0
2017-Dec-16 19:51N 45°28' E 012°14'0 0.0
2017-Dec-16 19:27N 45°28' E 012°14'0 0.0
2017-Dec-16 19:00N 45°28' E 012°14'0 0.0
2017-Dec-16 18:30N 45°28' E 012°14'0 0.0
2017-Dec-16 18:00N 45°28' E 012°14'0 0.0
2017-Dec-16 17:30N 45°28' E 012°14'0 0.0
2017-Dec-16 16:48N 45°28' E 012°14'0 0.0
2017-Dec-16 16:24N 45°28' E 012°14'0 0.0
2017-Dec-16 16:00N 45°28' E 012°14'0 0.0
2017-Dec-16 15:27N 45°28' E 012°14'0 0.0
2017-Dec-16 15:00N 45°28' E 012°14'0 0.0
2017-Dec-16 14:30N 45°28' E 012°14'0 0.0
2017-Dec-16 14:00N 45°28' E 012°14'0 0.0
2017-Dec-16 12:39N 45°28' E 012°14'0 0.0
2017-Dec-16 12:30N 45°28' E 012°14'0 0.0
2017-Dec-16 12:00N 45°28' E 012°14'0 0.0
2017-Dec-16 11:30N 45°28' E 012°14'0 0.0
2017-Dec-16 10:57N 45°28' E 012°14'0 0.0
2017-Dec-16 10:30N 45°28' E 012°14'0 0.0
2017-Dec-16 10:00N 45°28' E 012°14'0 0.0
2017-Dec-16 09:30N 45°28' E 012°14'0 0.0
2017-Dec-16 09:00N 45°28' E 012°14'0 0.0
2017-Dec-16 08:30N 45°28' E 012°14'0 0.0
2017-Dec-16 07:57N 45°28' E 012°14'0 0.0
2017-Dec-16 07:30N 45°28' E 012°14'0 0.0
2017-Dec-16 07:00N 45°28' E 012°14'0 0.0
2017-Dec-16 06:30N 45°28' E 012°14'0 0.0
2017-Dec-16 06:00N 45°28' E 012°14'0 0.0
2017-Dec-16 05:30N 45°28' E 012°14'0 0.0
2017-Dec-16 05:00N 45°28' E 012°14'0 0.0
2017-Dec-16 04:30N 45°28' E 012°14'0 0.0
2017-Dec-16 04:00N 45°28' E 012°14'0 0.0
2017-Dec-16 03:30N 45°28' E 012°14'0 0.0
2017-Dec-16 02:57N 45°28' E 012°14'0 0.0
2017-Dec-16 02:27N 45°28' E 012°14'0 0.0
2017-Dec-16 01:57N 45°28' E 012°14'0 0.0
2017-Dec-16 01:30N 45°28' E 012°14'0 0.0
2017-Dec-16 00:54N 45°28' E 012°14'0 0.0
2017-Dec-16 00:21N 45°28' E 012°14'0 0.0
2017-Dec-16 00:00N 45°28' E 012°14'0 0.0
2017-Dec-15 23:27N 45°28' E 012°14'0 0.0
2017-Dec-15 22:57N 45°28' E 012°14'0 0.0
2017-Dec-15 22:27N 45°28' E 012°14'0 0.0
2017-Dec-15 21:51N 45°28' E 012°14'0 0.0
2017-Dec-15 20:36N 45°28' E 012°14'0 0.0
2017-Dec-15 20:30N 45°28' E 012°14'0 0.0
2017-Dec-15 19:36N 45°28' E 012°14'0 0.0
2017-Dec-15 19:18N 45°28' E 012°14'0 0.0
2017-Dec-15 18:36N 45°28' E 012°14'0 0.0
2017-Dec-15 18:30N 45°28' E 012°14'0 0.0
2017-Dec-15 17:54N 45°28' E 012°14'0 0.0
2017-Dec-15 17:27N 45°28' E 012°14'0 0.0
2017-Dec-15 16:54N 45°28' E 012°14'0 0.0
2017-Dec-15 16:30N 45°28' E 012°14'0 0.0
2017-Dec-15 16:00N 45°28' E 012°14'0 0.0
2017-Dec-15 15:30N 45°28' E 012°14'0 0.0
2017-Dec-15 15:00N 45°28' E 012°14'0 0.0
2017-Dec-15 14:30N 45°28' E 012°14'1 1.2
2017-Dec-15 14:00N 45°27' E 012°14'2 3.6
2017-Dec-15 13:31N 45°26' E 012°16'4 7.1
2017-Dec-15 13:00N 45°22' E 012°15'4 7.6
2017-Dec-15 12:30N 45°20' E 012°20'3 6.9
2017-Dec-15 12:00N 45°19' E 012°25'2 3.3
2017-Dec-15 11:31N 45°20' E 012°26'2 3.8
2017-Dec-15 11:00N 45°22' E 012°28'0 0.2
2017-Dec-15 10:28N 45°22' E 012°28'0 0.0
2017-Dec-15 09:58N 45°22' E 012°28'0 0.0
2017-Dec-15 09:28N 45°22' E 012°28'0 0.0
2017-Dec-15 08:58N 45°22' E 012°28'0 0.0
2017-Dec-15 08:28N 45°22' E 012°28'0 0.0
2017-Dec-15 07:58N 45°22' E 012°28'0 0.0
2017-Dec-15 07:28N 45°22' E 012°28'0 0.0
2017-Dec-15 06:58N 45°22' E 012°28'0 0.0
2017-Dec-15 06:28N 45°22' E 012°28'0 0.0
2017-Dec-15 05:58N 45°22' E 012°28'0 0.0
2017-Dec-15 05:25N 45°22' E 012°28'0 0.0
2017-Dec-15 04:58N 45°22' E 012°28'0 0.0
2017-Dec-15 04:28N 45°22' E 012°28'0 0.0
2017-Dec-15 03:58N 45°22' E 012°28'0 0.0
2017-Dec-15 02:25N 45°22' E 012°28'0 0.0
2017-Dec-15 00:58N 45°22' E 012°28'0 0.0
2017-Dec-15 00:28N 45°22' E 012°28'0 0.0
2017-Dec-14 18:28N 45°22' E 012°28'0 0.0
2017-Dec-14 17:58N 45°22' E 012°28'0 0.0
2017-Dec-14 17:28N 45°22' E 012°28'0 0.0
2017-Dec-14 16:58N 45°22' E 012°28'0 0.0
2017-Dec-14 16:28N 45°22' E 012°28'0 0.0
2017-Dec-14 15:58N 45°22' E 012°28'0 0.0
2017-Dec-14 14:58N 45°22' E 012°28'0 0.0
2017-Dec-14 14:28N 45°22' E 012°28'0 0.2
2017-Dec-14 13:58N 45°22' E 012°28'0 0.0
2017-Dec-14 13:28N 45°22' E 012°28'0 0.0
2017-Dec-14 12:58N 45°22' E 012°28'0 0.0
2017-Dec-14 12:28N 45°22' E 012°28'0 0.0
2017-Dec-14 11:55N 45°22' E 012°28'0 0.0
2017-Dec-14 11:28N 45°22' E 012°28'0 0.0
2017-Dec-14 10:58N 45°22' E 012°28'0 0.1
2017-Dec-14 10:28N 45°22' E 012°28'0 0.1
2017-Dec-14 09:58N 45°22' E 012°28'0 0.0
2017-Dec-14 09:28N 45°22' E 012°28'0 0.0
2017-Dec-14 08:58N 45°22' E 012°28'0 0.0
2017-Dec-14 08:28N 45°22' E 012°28'0 0.0
2017-Dec-14 07:58N 45°22' E 012°28'0 0.0
2017-Dec-14 07:28N 45°22' E 012°28'0 0.0
2017-Dec-14 06:58N 45°22' E 012°28'0 0.0
2017-Dec-14 06:25N 45°22' E 012°28'0 0.0
2017-Dec-14 05:58N 45°22' E 012°28'0 0.0
2017-Dec-14 05:28N 45°22' E 012°28'0 0.0
2017-Dec-14 04:58N 45°22' E 012°28'0 0.0
2017-Dec-14 04:28N 45°22' E 012°28'0 0.0
2017-Dec-14 03:58N 45°22' E 012°28'0 0.0
2017-Dec-14 03:28N 45°22' E 012°28'0 0.0
2017-Dec-14 02:58N 45°22' E 012°28'0 0.1
2017-Dec-14 02:28N 45°22' E 012°28'0 0.1
2017-Dec-14 01:58N 45°22' E 012°28'0 0.0
2017-Dec-14 01:28N 45°22' E 012°28'0 0.2
2017-Dec-14 00:58N 45°22' E 012°28'0 0.0
2017-Dec-14 00:25N 45°22' E 012°28'0 0.0
2017-Dec-13 23:58N 45°22' E 012°28'0 0.1
2017-Dec-13 23:28N 45°22' E 012°28'0 0.1
2017-Dec-13 22:58N 45°22' E 012°28'0 0.1
2017-Dec-13 22:28N 45°22' E 012°28'0 0.0
2017-Dec-13 21:58N 45°22' E 012°28'0 0.0
2017-Dec-13 21:28N 45°22' E 012°28'0 0.0
2017-Dec-13 20:58N 45°22' E 012°28'0 0.0
2017-Dec-13 20:28N 45°22' E 012°28'0 0.0
2017-Dec-13 19:58N 45°22' E 012°28'0 0.0
2017-Dec-13 19:28N 45°22' E 012°28'0 0.0
2017-Dec-13 18:55N 45°22' E 012°28'0 0.0
2017-Dec-13 18:28N 45°22' E 012°28'0 0.0
2017-Dec-13 17:58N 45°22' E 012°28'0 0.0
2017-Dec-13 17:25N 45°22' E 012°28'0 0.0
2017-Dec-13 16:58N 45°22' E 012°28'0 0.0
2017-Dec-13 16:28N 45°22' E 012°28'0 0.0
2017-Dec-13 15:58N 45°22' E 012°28'0 0.0
2017-Dec-13 15:28N 45°22' E 012°28'0 0.0
2017-Dec-13 14:58N 45°22' E 012°28'0 0.0
2017-Dec-13 14:28N 45°22' E 012°28'0 0.0
2017-Dec-13 13:55N 45°22' E 012°28'0 0.0
2017-Dec-13 13:28N 45°22' E 012°28'0 0.0
2017-Dec-13 12:58N 45°22' E 012°28'0 0.1
2017-Dec-13 12:28N 45°22' E 012°28'0 0.1
2017-Dec-13 11:58N 45°22' E 012°28'0 0.1
2017-Dec-13 11:28N 45°22' E 012°28'0 0.0
2017-Dec-13 10:58N 45°22' E 012°28'0 0.0
2017-Dec-13 10:28N 45°22' E 012°28'0 0.0
2017-Dec-13 09:58N 45°22' E 012°28'0 0.1
2017-Dec-13 09:28N 45°22' E 012°28'0 0.0
2017-Dec-13 08:58N 45°22' E 012°28'0 0.0
2017-Dec-13 08:25N 45°22' E 012°28'0 0.0
2017-Dec-13 07:58N 45°22' E 012°28'0 0.0
2017-Dec-13 07:28N 45°22' E 012°28'0 0.0
2017-Dec-13 06:58N 45°22' E 012°28'0 0.0
2017-Dec-13 06:25N 45°22' E 012°28'0 0.0
2017-Dec-13 05:58N 45°22' E 012°28'0 0.0
2017-Dec-13 05:28N 45°22' E 012°28'0 0.0
2017-Dec-13 04:58N 45°22' E 012°28'0 0.0
2017-Dec-13 04:28N 45°22' E 012°28'0 0.0
2017-Dec-13 03:58N 45°22' E 012°28'0 0.1
2017-Dec-13 03:28N 45°22' E 012°28'0 0.0
2017-Dec-13 02:58N 45°22' E 012°28'0 0.0
2017-Dec-13 02:28N 45°22' E 012°28'0 0.0
2017-Dec-13 01:58N 45°22' E 012°28'0 0.0
2017-Dec-13 01:28N 45°22' E 012°28'0 0.0
2017-Dec-13 00:58N 45°22' E 012°28'0 0.0
2017-Dec-13 00:28N 45°22' E 012°28'0 0.0
2017-Dec-12 23:58N 45°22' E 012°28'0 0.1
2017-Dec-12 23:28N 45°22' E 012°28'0 0.0
2017-Dec-12 22:58N 45°22' E 012°28'0 0.0
2017-Dec-12 22:28N 45°22' E 012°28'0 0.1
2017-Dec-12 21:58N 45°22' E 012°28'0 0.1
2017-Dec-12 21:28N 45°22' E 012°28'0 0.0
2017-Dec-12 20:58N 45°22' E 012°28'0 0.0
2017-Dec-12 20:28N 45°22' E 012°28'0 0.0
2017-Dec-12 19:58N 45°22' E 012°28'0 0.0
2017-Dec-12 19:28N 45°22' E 012°28'0 0.0
2017-Dec-12 18:58N 45°22' E 012°28'0 0.0
2017-Dec-12 18:28N 45°22' E 012°28'0 0.0
2017-Dec-12 17:58N 45°22' E 012°28'0 0.0
2017-Dec-12 17:28N 45°22' E 012°28'0 0.0
2017-Dec-12 16:58N 45°22' E 012°28'0 0.0
2017-Dec-12 16:28N 45°22' E 012°28'0 0.0
2017-Dec-12 15:58N 45°22' E 012°28'0 0.1
2017-Dec-12 15:28N 45°22' E 012°28'0 0.0
2017-Dec-12 14:58N 45°22' E 012°28'0 0.0
2017-Dec-12 14:28N 45°22' E 012°28'0 0.0
2017-Dec-12 13:58N 45°22' E 012°28'0 0.0
2017-Dec-12 13:28N 45°22' E 012°28'0 0.0
2017-Dec-12 12:58N 45°22' E 012°28'0 0.0
2017-Dec-12 12:28N 45°22' E 012°28'0 0.0
2017-Dec-12 11:58N 45°22' E 012°28'0 0.1
2017-Dec-12 11:28N 45°22' E 012°28'0 0.0
2017-Dec-12 10:58N 45°22' E 012°28'0 0.0
2017-Dec-12 10:28N 45°22' E 012°28'0 0.0
2017-Dec-12 09:58N 45°22' E 012°28'0 0.2
2017-Dec-12 09:28N 45°22' E 012°28'0 0.2
2017-Dec-12 08:58N 45°22' E 012°28'0 0.0
2017-Dec-12 08:28N 45°22' E 012°28'0 0.1
2017-Dec-12 07:58N 45°22' E 012°28'0 0.0
2017-Dec-12 07:28N 45°22' E 012°28'0 0.0
2017-Dec-12 06:58N 45°22' E 012°28'0 0.1
2017-Dec-12 06:28N 45°22' E 012°28'0 0.0
2017-Dec-12 05:58N 45°22' E 012°28'0 0.0
2017-Dec-12 05:25N 45°22' E 012°28'0 0.0
2017-Dec-12 04:58N 45°22' E 012°28'0 0.0
2017-Dec-12 04:28N 45°22' E 012°28'0 0.0
2017-Dec-12 03:58N 45°22' E 012°28'0 0.0
2017-Dec-12 03:28N 45°22' E 012°28'0 0.1
2017-Dec-12 02:58N 45°22' E 012°28'0 0.0
2017-Dec-12 02:28N 45°22' E 012°28'0 0.1
2017-Dec-12 01:58N 45°22' E 012°28'0 0.1
2017-Dec-12 01:28N 45°22' E 012°28'0 0.0
2017-Dec-12 00:58N 45°22' E 012°28'0 0.1
2017-Dec-12 00:28N 45°22' E 012°28'0 0.1
2017-Dec-11 23:58N 45°22' E 012°28'0 0.1
2017-Dec-11 23:28N 45°22' E 012°28'0 0.0
2017-Dec-11 22:58N 45°22' E 012°28'0 0.0
2017-Dec-11 22:28N 45°22' E 012°28'0 0.0
2017-Dec-11 21:58N 45°22' E 012°28'0 0.0
2017-Dec-11 21:28N 45°22' E 012°28'0 0.0
2017-Dec-11 20:58N 45°22' E 012°28'0 0.0
2017-Dec-11 20:28N 45°22' E 012°28'0 0.0
2017-Dec-11 19:58N 45°22' E 012°28'0 0.0
2017-Dec-11 19:28N 45°22' E 012°28'0 0.0
2017-Dec-11 18:58N 45°22' E 012°28'0 0.0
2017-Dec-11 18:28N 45°22' E 012°28'0 0.0
2017-Dec-11 17:58N 45°22' E 012°28'0 0.0
2017-Dec-11 17:28N 45°22' E 012°28'0 0.0
2017-Dec-11 16:58N 45°22' E 012°28'0 0.0
2017-Dec-11 16:28N 45°22' E 012°28'0 0.0
2017-Dec-11 15:58N 45°22' E 012°28'0 0.0
2017-Dec-11 15:28N 45°22' E 012°28'0 0.0
2017-Dec-11 14:58N 45°22' E 012°28'0 0.0
2017-Dec-11 14:28N 45°22' E 012°28'0 0.1
2017-Dec-11 13:58N 45°22' E 012°28'0 0.0
2017-Dec-11 13:28N 45°22' E 012°28'0 0.0
2017-Dec-11 12:58N 45°22' E 012°28'0 0.0
2017-Dec-11 12:28N 45°22' E 012°28'0 0.0
2017-Dec-11 11:58N 45°22' E 012°28'0 0.0
2017-Dec-11 11:28N 45°22' E 012°28'0 0.2
2017-Dec-11 11:00N 45°22' E 012°28'2 4.0
2017-Dec-11 10:30N 45°20' E 012°26'3 5.2
2017-Dec-11 10:00N 45°18' E 012°28'3 5.2
2017-Dec-11 09:30N 45°17' E 012°32'3 5.5
2017-Dec-11 09:00N 45°15' E 012°35'3 5.5
2017-Dec-11 08:30N 45°14' E 012°38'3 5.5
2017-Dec-11 08:00N 45°12' E 012°41'3 5.7
2017-Dec-11 07:30N 45°10' E 012°45'4 7.6
2017-Dec-11 07:00N 45°08' E 012°48'4 7.4
2017-Dec-11 06:30N 45°04' E 012°50'4 7.5
2017-Dec-11 06:00N 45°01' E 012°53'4 7.8
2017-Dec-11 05:30N 44°57' E 012°55'4 8.7
2017-Dec-11 05:00N 44°53' E 012°57'4 8.7
2017-Dec-11 04:30N 44°49' E 012°59'4 8.9
2017-Dec-11 04:00N 44°45' E 013°02'4 8.8
2017-Dec-11 03:30N 44°41' E 013°04'4 8.8
2017-Dec-11 03:00N 44°37' E 013°06'4 8.8
2017-Dec-11 02:30N 44°33' E 013°08'4 8.8
2017-Dec-11 01:59N 44°28' E 013°10'4 8.8
2017-Dec-11 01:30N 44°24' E 013°11'5 9.1
2017-Dec-11 01:00N 44°20' E 013°13'4 8.8
2017-Dec-11 00:30N 44°16' E 013°17'5 9.0
2017-Dec-11 00:00N 44°14' E 013°22'6 8.9
2017-Dec-10 23:20N 44°10' E 013°29'  
2017-Dec-08 13:46N 36°26' E 014°43'413.9
2017-Dec-08 13:30N 36°27' E 014°38'714.1
2017-Dec-08 13:00N 36°29' E 014°30'714.1
2017-Dec-08 12:30N 36°31' E 014°22'713.1
2017-Dec-08 12:00N 36°33' E 014°14'612.6
2017-Dec-08 11:30N 36°35' E 014°07'812.5
2017-Dec-08 10:49N 36°37' E 013°56'412.5
2017-Dec-08 10:28N 36°38' E 013°51'1812.5
2017-Dec-08 09:03N 36°43' E 013°30'112.6
2017-Dec-08 08:57N 36°43' E 013°28'  

Dump ship's entire track history